Terminal Aerodrome Forecast
Issued by NWS Wilmington, OH

Current Version | Previous Version | Graphics & Text | Print | Product List | Glossary On
Versions: 1 2 3 4 5 6 7 8 9 10 11 12 13 14 15 16 17
000
FTUS41 KILN 051100
TAFDAY
TAF
KDAY 051120Z 0512/0612 00000KT P6SM BKN130 OVC250
     FM051400 08004KT P6SM FEW050 SCT130 OVC250
     FM060100 VRB03KT P6SM FEW050 BKN250=

USA.gov is the U.S. government's official web portal to all federal, state and local government web resources and services.